createdAt,value
2022-10-03T00:01:43.502Z,97231.44
2022-10-03T00:04:15.338Z,97227.84
2022-10-03T00:06:48.928Z,97267.41
2022-10-03T00:09:26.596Z,97237.44
2022-10-03T00:12:00.317Z,97246.50
2022-10-03T00:14:31.544Z,97245.72
2022-10-03T00:17:01.133Z,97250.00
2022-10-03T00:19:30.993Z,97260.63
2022-10-03T00:22:02.345Z,97257.16
2022-10-03T00:24:36.340Z,97261.66
2022-10-03T00:27:04.757Z,97251.63
2022-10-03T00:29:40.743Z,97255.34
2022-10-03T00:32:15.116Z,97258.56
2022-10-03T00:34:49.484Z,97259.16
2022-10-03T00:37:20.880Z,97261.84
2022-10-03T00:39:56.182Z,97283.91
2022-10-03T00:42:29.884Z,97291.72
2022-10-03T00:45:04.235Z,97298.16
2022-10-03T00:47:34.781Z,97286.66
2022-10-03T00:50:10.248Z,97281.81
2022-10-03T00:52:42.190Z,97271.16
2022-10-03T00:55:16.465Z,97281.75
2022-10-03T00:57:50.882Z,97290.59
2022-10-03T01:00:19.732Z,97295.00
2022-10-03T01:03:02.604Z,97291.22
2022-10-03T01:05:34.978Z,97291.63
2022-10-03T01:08:10.584Z,97280.81
2022-10-03T01:10:43.172Z,97276.63
2022-10-03T01:13:15.377Z,97262.31
2022-10-03T01:15:47.193Z,97264.34
2022-10-03T01:18:20.417Z,97275.44
2022-10-03T01:20:52.579Z,97273.97
2022-10-03T01:23:41.477Z,97281.47
2022-10-03T01:26:18.509Z,97274.38
2022-10-03T01:29:07.723Z,97277.03
2022-10-03T01:31:37.321Z,97285.09
2022-10-03T01:34:07.423Z,97277.41
2022-10-03T01:36:43.294Z,97284.38
2022-10-03T01:39:14.850Z,97290.91
2022-10-03T01:41:45.881Z,97295.41
2022-10-03T01:44:19.857Z,97300.22
2022-10-03T01:46:51.549Z,97307.91
2022-10-03T01:49:24.033Z,97314.59
2022-10-03T01:51:53.571Z,97316.13
2022-10-03T01:57:14.872Z,97331.41
2022-10-03T01:59:47.561Z,97326.06
2022-10-03T02:02:19.073Z,97327.94
2022-10-03T02:04:47.376Z,97324.38
2022-10-03T02:07:21.591Z,97321.22
2022-10-03T02:09:55.496Z,97323.59
2022-10-03T02:12:26.898Z,97323.16
2022-10-03T02:14:57.257Z,97325.66
2022-10-03T02:17:28.402Z,97319.97
2022-10-03T02:20:02.150Z,97323.81
2022-10-03T02:22:36.034Z,97193.69
2022-10-03T02:25:12.216Z,97324.94
2022-10-03T02:28:01.623Z,97324.22
2022-10-03T02:30:35.331Z,97334.81
2022-10-03T02:33:13.253Z,97328.25
2022-10-03T02:35:52.223Z,97328.94
2022-10-03T02:38:24.431Z,97325.59
2022-10-03T02:40:57.933Z,97324.03
2022-10-03T02:43:35.838Z,97323.22
2022-10-03T02:46:22.754Z,97321.97
2022-10-03T02:49:05.173Z,97317.34
2022-10-03T02:51:46.215Z,97316.03
2022-10-03T02:54:37.565Z,97311.41
2022-10-03T02:57:12.660Z,97305.56
2022-10-03T02:59:51.898Z,97312.97
2022-10-03T03:02:37.963Z,97313.47
2022-10-03T03:05:19.719Z,97309.97
2022-10-03T03:08:02.497Z,97305.09
2022-10-03T03:10:34.574Z,97303.94
2022-10-03T03:13:27.898Z,97311.81
2022-10-03T03:16:14.108Z,97306.88
2022-10-03T03:18:43.516Z,97313.22
2022-10-03T03:21:22.313Z,97307.66
2022-10-03T03:23:56.957Z,97303.97
2022-10-03T03:26:32.719Z,97302.84
2022-10-03T03:29:02.988Z,97308.59
2022-10-03T03:31:32.133Z,97307.88
2022-10-03T03:34:04.933Z,97303.25
2022-10-03T03:36:35.485Z,97311.59
2022-10-03T03:39:05.128Z,97306.88
2022-10-03T03:41:44.661Z,97299.66
2022-10-03T03:44:21.792Z,97294.97
2022-10-03T03:46:54.769Z,97296.97
2022-10-03T03:49:33.129Z,97300.72
2022-10-03T03:52:10.646Z,97309.44
2022-10-03T03:54:56.518Z,97310.41
2022-10-03T03:57:33.257Z,97312.50
2022-10-03T04:00:08.681Z,97321.03
2022-10-03T04:02:40.802Z,97321.13
2022-10-03T04:05:12.282Z,97328.84
2022-10-03T04:07:47.738Z,97331.41
2022-10-03T04:10:18.614Z,97334.88
2022-10-03T04:13:04.907Z,97324.75
2022-10-03T04:15:37.739Z,97323.56
2022-10-03T04:18:27.399Z,97328.78
2022-10-03T04:20:59.085Z,97322.09
2022-10-03T04:23:31.050Z,97320.31
2022-10-03T04:26:05.057Z,97328.00
2022-10-03T04:28:36.386Z,97326.47
2022-10-03T04:31:15.770Z,97333.66
2022-10-03T04:33:53.935Z,97326.22
2022-10-03T04:36:38.624Z,97337.22
2022-10-03T04:39:11.028Z,97331.75
2022-10-03T04:41:43.219Z,97343.19
2022-10-03T04:44:13.150Z,97331.84
2022-10-03T04:46:46.851Z,97331.81
2022-10-03T04:49:17.129Z,97344.94
2022-10-03T04:51:50.911Z,97343.00
2022-10-03T04:54:23.977Z,97344.66
2022-10-03T04:56:54.484Z,97350.25
2022-10-03T04:59:38.009Z,97346.34
2022-10-03T05:02:14.706Z,97347.34
2022-10-03T05:04:45.264Z,97344.84
2022-10-03T05:07:15.498Z,97344.69
2022-10-03T05:09:45.114Z,97348.69
2022-10-03T05:12:17.348Z,97346.56
2022-10-03T05:14:53.505Z,97349.69
2022-10-03T05:17:24.401Z,97351.59
2022-10-03T05:19:55.425Z,97348.38
2022-10-03T05:22:25.357Z,97350.81
2022-10-03T05:24:59.518Z,97362.09
2022-10-03T05:27:31.114Z,97360.28
2022-10-03T05:30:00.999Z,97356.81
2022-10-03T05:32:31.907Z,97366.56
2022-10-03T05:35:14.744Z,97369.59
2022-10-03T05:38:00.203Z,97380.13
2022-10-03T05:40:28.065Z,97379.59
2022-10-03T05:43:05.995Z,97385.00
2022-10-03T05:45:36.647Z,97390.84
2022-10-03T05:48:13.672Z,97391.00
2022-10-03T05:50:58.869Z,97395.34
2022-10-03T05:53:40.786Z,97402.75
2022-10-03T05:56:09.185Z,97388.03
2022-10-03T05:58:56.602Z,97388.63
2022-10-03T06:01:41.271Z,97388.91
2022-10-03T06:04:17.597Z,97386.91
2022-10-03T06:06:50.941Z,97398.78
2022-10-03T06:09:25.424Z,97397.84
2022-10-03T06:12:14.308Z,97399.00
2022-10-03T06:15:08.700Z,97399.22
2022-10-03T06:17:44.015Z,97407.75
2022-10-03T06:20:26.732Z,97407.41
2022-10-03T06:23:13.031Z,97414.44
2022-10-03T06:26:00.520Z,97422.81
2022-10-03T06:28:45.161Z,97415.78
2022-10-03T06:31:31.895Z,97460.28
2022-10-03T06:34:24.410Z,97413.69
2022-10-03T06:36:56.122Z,97418.09
2022-10-03T06:39:37.632Z,97421.34
2022-10-03T06:42:20.426Z,97422.38
2022-10-03T06:45:06.014Z,97436.38
2022-10-03T06:47:42.666Z,97431.44
2022-10-03T06:50:22.597Z,97428.00
2022-10-03T06:52:54.367Z,97432.56
2022-10-03T06:55:37.489Z,97246.16
2022-10-03T06:58:24.418Z,97442.06
2022-10-03T07:00:59.898Z,97439.38
2022-10-03T07:03:32.487Z,97443.84
2022-10-03T07:06:15.091Z,97440.50
2022-10-03T07:09:07.117Z,97448.41
2022-10-03T07:11:44.172Z,97450.63
2022-10-03T07:14:29.730Z,97446.88
2022-10-03T07:17:23.353Z,97453.03
2022-10-03T07:19:59.345Z,97449.44
2022-10-03T07:22:36.182Z,97451.25
2022-10-03T07:25:19.304Z,97458.16
2022-10-03T07:27:52.129Z,97477.72
2022-10-03T07:30:19.861Z,97467.44
2022-10-03T07:33:08.331Z,97465.34
2022-10-03T07:36:04.618Z,97474.28
2022-10-03T07:39:00.981Z,97471.53
2022-10-03T07:41:44.504Z,97472.66
2022-10-03T07:44:31.249Z,97470.78
2022-10-03T07:47:29.237Z,97469.94
2022-10-03T07:50:01.090Z,97475.09
2022-10-03T07:52:38.207Z,97473.81
2022-10-03T07:55:24.733Z,97473.00
2022-10-03T07:57:57.054Z,97467.72
2022-10-03T08:00:24.859Z,97232.97
2022-10-03T08:03:16.601Z,97461.03
2022-10-03T08:05:47.419Z,97464.72
2022-10-03T08:08:24.898Z,97465.53
2022-10-03T08:11:03.858Z,97474.63
2022-10-03T08:13:36.513Z,97477.91
2022-10-03T08:16:08.437Z,97477.69
2022-10-03T08:19:00.367Z,97483.75
2022-10-03T08:21:29.763Z,97483.69
2022-10-03T08:24:11.650Z,97489.03
2022-10-03T08:26:44.279Z,97489.59
2022-10-03T08:29:22.558Z,97483.66
2022-10-03T08:31:59.572Z,97489.81
2022-10-03T08:34:36.710Z,97489.06
2022-10-03T08:37:18.125Z,97486.88
2022-10-03T08:39:56.242Z,97490.56
2022-10-03T08:42:37.872Z,97492.75
2022-10-03T08:45:24.330Z,97490.38
2022-10-03T08:48:10.879Z,97487.28
2022-10-03T08:50:50.567Z,97474.06
2022-10-03T08:53:26.060Z,97475.84
2022-10-03T08:55:55.906Z,97471.53
2022-10-03T08:58:33.614Z,97479.28
2022-10-03T09:01:23.771Z,97488.84
2022-10-03T09:04:06.814Z,97486.19
2022-10-03T09:07:16.127Z,97478.53
2022-10-03T09:09:47.686Z,97477.72
2022-10-03T09:12:22.594Z,97492.13
2022-10-03T09:15:13.243Z,97492.56
2022-10-03T09:17:58.957Z,97491.97
2022-10-03T09:20:42.401Z,97485.38
2022-10-03T09:23:24.913Z,97478.19
2022-10-03T09:26:09.741Z,97478.19
2022-10-03T09:28:55.074Z,97470.75
2022-10-03T09:31:30.288Z,97471.53
2022-10-03T09:34:23.215Z,97473.13
2022-10-03T09:37:06.349Z,97470.47
2022-10-03T09:39:39.631Z,97477.16
2022-10-03T09:42:22.250Z,97481.06
2022-10-03T09:44:55.074Z,97469.69
2022-10-03T09:47:37.718Z,97475.75
2022-10-03T09:50:10.939Z,97475.22
2022-10-03T09:52:51.419Z,97472.41
2022-10-03T09:55:24.554Z,97465.69
2022-10-03T09:58:13.046Z,97469.75
2022-10-03T10:01:04.817Z,97472.97
2022-10-03T10:03:48.750Z,97469.50
2022-10-03T10:06:28.251Z,97469.25
2022-10-03T10:09:14.353Z,97464.72
2022-10-03T10:11:51.147Z,97469.50
2022-10-03T10:14:30.753Z,97466.56
2022-10-03T10:17:23.576Z,97465.25
2022-10-03T10:19:59.251Z,97473.22
2022-10-03T10:22:58.607Z,97474.84
2022-10-03T10:25:35.007Z,97470.56
2022-10-03T10:28:09.312Z,97475.88
2022-10-03T10:30:48.759Z,97478.84
2022-10-03T10:33:40.473Z,97478.31
2022-10-03T10:36:18.282Z,97484.19
2022-10-03T10:38:56.774Z,97488.16
2022-10-03T10:41:39.797Z,97492.59
2022-10-03T10:44:29.492Z,97492.81
2022-10-03T10:47:14.246Z,97492.28
2022-10-03T10:49:57.679Z,97492.03
2022-10-03T10:52:34.869Z,97488.81
2022-10-03T10:55:21.274Z,97490.19
2022-10-03T10:58:07.317Z,97473.19
2022-10-03T11:00:40.500Z,97469.47
2022-10-03T11:03:26.909Z,97472.16
2022-10-03T11:06:08.036Z,97457.75
2022-10-03T11:09:00.047Z,97488.72
2022-10-03T11:11:41.875Z,97461.78
2022-10-03T11:14:33.796Z,97466.53
2022-10-03T11:17:15.825Z,97452.44
2022-10-03T11:20:04.130Z,97463.59
2022-10-03T11:22:43.999Z,97455.66
2022-10-03T11:25:32.410Z,97457.69
2022-10-03T11:28:09.888Z,97462.72
2022-10-03T11:30:44.842Z,97458.69
2022-10-03T11:33:31.246Z,97461.34
2022-10-03T11:36:13.756Z,97454.72
2022-10-03T11:38:42.423Z,97453.03
2022-10-03T11:41:13.105Z,97447.66
2022-10-03T11:44:07.400Z,97449.16
2022-10-03T11:46:46.169Z,97446.97
2022-10-03T11:49:20.575Z,97440.59
2022-10-03T11:51:53.571Z,97441.63
2022-10-03T11:54:32.569Z,97432.28
2022-10-03T11:57:02.996Z,97429.47
2022-10-03T11:59:33.360Z,97430.06
2022-10-03T12:02:14.774Z,97431.63
2022-10-03T12:04:46.896Z,97419.97
2022-10-03T12:07:39.353Z,97428.06
2022-10-03T12:10:08.978Z,97433.09
2022-10-03T12:12:39.157Z,97430.13
2022-10-03T12:15:13.056Z,97439.31
2022-10-03T12:17:48.721Z,97435.63
2022-10-03T12:20:17.693Z,97436.31
2022-10-03T12:22:48.567Z,97435.19
2022-10-03T12:25:23.046Z,97436.81
2022-10-03T12:27:52.105Z,97430.72
2022-10-03T12:30:20.199Z,97428.25
2022-10-03T12:32:52.727Z,97421.53
2022-10-03T12:35:26.759Z,97423.94
2022-10-03T12:38:09.554Z,97408.31
2022-10-03T12:40:39.259Z,97408.63
2022-10-03T12:43:10.655Z,97415.72
2022-10-03T12:45:40.862Z,97399.97
2022-10-03T12:48:29.168Z,97404.53
2022-10-03T12:51:00.491Z,97400.91
2022-10-03T12:53:38.831Z,97400.59
2022-10-03T12:56:11.038Z,97402.75
2022-10-03T12:58:41.653Z,97403.84
2022-10-03T13:01:11.499Z,97402.00
2022-10-03T13:03:40.798Z,97399.66
2022-10-03T13:06:38.875Z,97393.63
2022-10-03T13:09:13.110Z,97382.94
2022-10-03T13:11:41.905Z,97390.44
2022-10-03T13:14:16.559Z,97385.56
2022-10-03T13:16:46.237Z,97385.59
2022-10-03T13:19:17.370Z,97381.94
2022-10-03T13:21:54.190Z,97390.97
2022-10-03T13:24:24.733Z,97381.03
2022-10-03T13:26:54.342Z,97381.22
2022-10-03T13:29:33.671Z,97383.44
2022-10-03T13:32:07.032Z,97384.25
2022-10-03T13:34:38.586Z,97377.97
2022-10-03T13:37:09.981Z,97374.03
2022-10-03T13:39:42.001Z,97377.75
2022-10-03T13:42:11.273Z,97374.94
2022-10-03T13:44:40.956Z,97375.13
2022-10-03T13:47:27.796Z,97382.63
2022-10-03T13:49:56.820Z,97387.91
2022-10-03T13:52:28.034Z,97376.19
2022-10-03T13:55:20.480Z,97388.41
2022-10-03T13:57:54.228Z,97380.94
2022-10-03T14:00:22.309Z,97385.31
2022-10-03T14:02:58.763Z,97375.25
2022-10-03T14:05:32.013Z,97375.47
2022-10-03T14:08:05.816Z,97371.69
2022-10-03T14:10:39.454Z,97369.56
2022-10-03T14:13:16.552Z,97369.03
2022-10-03T14:15:54.906Z,97367.13
2022-10-03T14:18:36.418Z,97368.44
2022-10-03T14:21:35.566Z,97370.56
2022-10-03T14:24:07.198Z,97370.28
2022-10-03T14:26:38.525Z,97367.25
2022-10-03T14:29:07.600Z,97367.88
2022-10-03T14:31:36.552Z,97359.47
2022-10-03T14:34:07.867Z,97358.72
2022-10-03T14:36:40.828Z,97356.38
2022-10-03T14:39:22.136Z,97347.47
2022-10-03T14:41:55.093Z,97338.69
2022-10-03T14:44:23.631Z,97347.22
2022-10-03T14:46:52.610Z,97340.75
2022-10-03T14:49:48.608Z,97335.50
2022-10-03T14:52:12.870Z,97341.66
2022-10-03T14:54:42.316Z,97343.09
2022-10-03T14:57:28.363Z,97342.28
2022-10-03T14:59:58.938Z,97337.00
2022-10-03T15:02:28.552Z,97329.81
2022-10-03T15:04:59.297Z,97328.50
2022-10-03T15:07:35.937Z,97327.06
2022-10-03T15:10:06.297Z,97328.88
2022-10-03T15:12:34.346Z,97326.63
2022-10-03T15:15:02.450Z,97324.78
2022-10-03T15:17:31.927Z,97323.31
2022-10-03T15:20:00.889Z,97323.97
2022-10-03T15:22:30.455Z,97338.53
2022-10-03T15:24:59.329Z,97329.75
2022-10-03T15:27:28.333Z,97328.81
2022-10-03T15:29:57.879Z,97330.28
2022-10-03T15:32:27.679Z,97333.44
2022-10-03T15:34:57.265Z,97327.53
2022-10-03T15:37:26.790Z,97337.22
2022-10-03T15:39:54.814Z,97327.50
2022-10-03T15:42:23.998Z,97332.16
2022-10-03T15:44:54.174Z,97319.63
2022-10-03T15:47:26.727Z,97332.78
2022-10-03T15:49:56.102Z,97324.47
2022-10-03T15:52:25.936Z,97326.91
2022-10-03T15:55:10.983Z,97332.50
2022-10-03T15:57:40.077Z,97327.97
2022-10-03T16:00:15.987Z,97328.56
2022-10-03T16:02:49.902Z,97325.69
2022-10-03T16:05:19.568Z,97322.69
2022-10-03T16:07:50.495Z,97330.38
2022-10-03T16:10:20.497Z,97326.63
2022-10-03T16:13:00.709Z,97335.19
2022-10-03T16:15:38.148Z,97328.88
2022-10-03T16:18:09.772Z,97330.19
2022-10-03T16:20:39.409Z,97330.69
2022-10-03T16:23:14.384Z,97324.25
2022-10-03T16:25:44.007Z,97322.72
2022-10-03T16:28:14.362Z,97326.25
2022-10-03T16:30:47.228Z,97319.34
2022-10-03T16:33:21.586Z,97329.63
2022-10-03T16:35:49.634Z,97325.66
2022-10-03T16:38:19.669Z,97329.91
2022-10-03T16:40:52.124Z,97334.66
2022-10-03T16:43:21.282Z,97334.28
2022-10-03T16:45:51.892Z,97334.75
2022-10-03T16:48:38.428Z,97343.22
2022-10-03T16:51:08.403Z,97351.25
2022-10-03T16:53:36.996Z,97351.97
2022-10-03T16:56:09.590Z,97347.44
2022-10-03T16:58:39.979Z,97341.78
2022-10-03T17:03:59.958Z,97327.56
2022-10-03T17:06:32.325Z,97328.41
2022-10-03T17:09:01.362Z,97324.75
2022-10-03T17:11:29.024Z,97328.59
2022-10-03T17:13:58.242Z,97327.88
2022-10-03T17:16:37.836Z,97328.16
2022-10-03T17:19:12.317Z,97334.06
2022-10-03T17:21:41.085Z,97087.28
2022-10-03T17:24:10.716Z,97330.69
2022-10-03T17:26:39.369Z,97324.00
2022-10-03T17:29:09.990Z,97125.13
2022-10-03T17:31:40.855Z,97323.53
2022-10-03T17:34:12.542Z,97321.66
2022-10-03T17:36:48.862Z,97326.53
2022-10-03T17:39:21.774Z,97330.53
2022-10-03T17:41:53.346Z,97329.19
2022-10-03T17:44:23.888Z,97333.19
2022-10-03T17:46:56.933Z,97331.31
2022-10-03T17:49:28.721Z,97329.97
2022-10-03T17:51:57.089Z,97323.84
2022-10-03T17:54:27.963Z,97322.53
2022-10-03T17:56:57.232Z,97323.88
2022-10-03T17:59:28.149Z,97320.41
2022-10-03T18:01:58.222Z,97316.94
2022-10-03T18:04:30.115Z,97318.53
2022-10-03T18:06:57.993Z,97313.72
2022-10-03T18:09:30.097Z,97309.19
2022-10-03T18:12:00.593Z,97314.00
2022-10-03T18:14:33.318Z,97311.34
2022-10-03T18:17:04.305Z,97310.00
2022-10-03T18:19:34.608Z,97310.50
2022-10-03T18:22:06.413Z,97303.84
2022-10-03T18:25:01.229Z,97303.63
2022-10-03T18:27:51.406Z,97298.53
2022-10-03T18:30:20.420Z,97301.19
2022-10-03T18:32:52.422Z,97309.84
2022-10-03T18:35:27.395Z,97299.25
2022-10-03T18:38:15.147Z,97302.78
2022-10-03T18:40:43.616Z,97298.44
2022-10-03T18:43:23.169Z,97307.75
2022-10-03T18:45:51.306Z,97312.53
2022-10-03T18:48:20.979Z,97300.78
2022-10-03T18:50:52.759Z,97308.75
2022-10-03T18:53:20.802Z,97307.19
2022-10-03T18:55:48.751Z,97310.97
2022-10-03T18:58:18.402Z,97310.72
2022-10-03T19:00:48.368Z,97307.56
2022-10-03T19:03:16.367Z,97305.19
2022-10-03T19:05:46.573Z,97304.34
2022-10-03T19:08:20.721Z,97310.22
2022-10-03T19:10:50.261Z,97310.44
2022-10-03T19:13:19.882Z,97309.31
2022-10-03T19:15:52.410Z,97311.44
2022-10-03T19:18:29.056Z,97313.78
2022-10-03T19:21:02.922Z,97316.56
2022-10-03T19:23:31.653Z,97320.09
2022-10-03T19:26:01.062Z,97313.72
2022-10-03T19:28:30.404Z,97309.84
2022-10-03T19:31:02.728Z,97322.91
2022-10-03T19:33:30.752Z,97305.84
2022-10-03T19:35:59.494Z,97304.66
2022-10-03T19:38:29.069Z,97307.31
2022-10-03T19:40:57.133Z,97070.22
2022-10-03T19:43:28.980Z,97311.88
2022-10-03T19:45:59.558Z,97299.16
2022-10-03T19:48:27.605Z,97304.25
2022-10-03T19:50:57.995Z,97299.13
2022-10-03T19:53:25.632Z,97301.38
2022-10-03T19:55:57.742Z,97313.81
2022-10-03T19:58:25.719Z,97307.91
2022-10-03T20:00:54.135Z,97298.56
2022-10-03T20:03:24.382Z,97305.44
2022-10-03T20:05:54.988Z,97299.69
2022-10-03T20:08:27.235Z,97298.78
2022-10-03T20:11:24.354Z,97305.19
2022-10-03T20:13:53.679Z,97301.09
2022-10-03T20:16:22.272Z,97294.50
2022-10-03T20:18:50.762Z,97294.41
2022-10-03T20:21:21.389Z,97295.53
2022-10-03T20:23:51.651Z,97300.69
2022-10-03T20:26:21.843Z,97306.94
2022-10-03T20:28:56.081Z,97313.16
2022-10-03T20:31:26.712Z,97301.78
2022-10-03T20:33:54.584Z,97299.91
2022-10-03T20:36:24.649Z,97301.53
2022-10-03T20:39:07.163Z,97304.25
2022-10-03T20:41:40.959Z,97308.72
2022-10-03T20:44:13.381Z,97310.78
2022-10-03T20:46:43.465Z,97310.81
2022-10-03T20:49:12.319Z,97316.13
2022-10-03T20:51:44.040Z,97304.09
2022-10-03T20:54:16.701Z,97305.38
2022-10-03T20:56:55.008Z,97305.66
2022-10-03T20:59:25.497Z,97302.78
2022-10-03T21:01:59.112Z,97303.25
2022-10-03T21:04:27.310Z,97297.00
2022-10-03T21:07:01.048Z,97293.94
2022-10-03T21:09:36.937Z,97296.75
2022-10-03T21:12:04.713Z,97291.84
2022-10-03T21:14:39.262Z,97287.66
2022-10-03T21:17:08.257Z,97285.91
2022-10-03T21:19:40.855Z,97290.34
2022-10-03T21:22:11.642Z,97289.53
2022-10-03T21:24:41.470Z,97287.34
2022-10-03T21:27:12.081Z,97278.72
2022-10-03T21:29:42.059Z,97279.44
2022-10-03T21:32:15.803Z,97278.34
2022-10-03T21:34:45.372Z,97276.59
2022-10-03T21:37:14.820Z,97272.13
2022-10-03T21:39:44.310Z,97266.75
2022-10-03T21:42:16.818Z,97266.78
2022-10-03T21:44:54.041Z,97266.72
2022-10-03T21:47:30.854Z,97310.19
2022-10-03T21:49:58.929Z,97261.56
2022-10-03T21:52:34.661Z,97261.44
2022-10-03T21:55:05.565Z,97259.78
2022-10-03T21:57:36.124Z,97261.47
2022-10-03T22:00:15.002Z,97265.56
2022-10-03T22:02:57.955Z,97256.44
2022-10-03T22:05:28.554Z,97257.59
2022-10-03T22:07:56.584Z,97250.59
2022-10-03T22:10:25.990Z,97255.16
2022-10-03T22:12:56.795Z,97246.66
2022-10-03T22:15:29.858Z,97248.06
2022-10-03T22:17:59.263Z,97245.88
2022-10-03T22:20:27.651Z,97245.69
2022-10-03T22:22:57.323Z,97238.09
2022-10-03T22:25:27.706Z,97240.69
2022-10-03T22:28:00.393Z,97233.81
2022-10-03T22:30:29.990Z,97231.84
2022-10-03T22:33:03.626Z,97227.91
2022-10-03T22:35:36.153Z,97233.47
2022-10-03T22:38:04.018Z,97230.13
2022-10-03T22:40:31.793Z,97227.03
2022-10-03T22:43:03.190Z,97229.66
2022-10-03T22:45:32.822Z,97223.94
2022-10-03T22:48:07.327Z,97220.97
2022-10-03T22:50:34.994Z,97217.97
2022-10-03T22:53:04.733Z,97219.03
2022-10-03T22:55:32.676Z,97220.81
2022-10-03T22:58:03.066Z,97226.50
2022-10-03T23:00:33.262Z,97213.50
2022-10-03T23:03:06.339Z,97202.47
2022-10-03T23:05:43.191Z,97204.84
2022-10-03T23:08:14.947Z,97205.56
2022-10-03T23:10:47.725Z,97209.13
2022-10-03T23:13:17.086Z,97212.69
2022-10-03T23:15:46.541Z,97214.97
2022-10-03T23:18:32.426Z,97211.34
2022-10-03T23:21:03.160Z,97209.53
2022-10-03T23:23:32.514Z,97204.22
2022-10-03T23:26:05.634Z,97207.34
2022-10-03T23:28:38.673Z,97208.00
2022-10-03T23:31:10.084Z,97200.50
2022-10-03T23:33:53.384Z,97199.16
2022-10-03T23:36:25.736Z,97197.13
2022-10-03T23:38:59.916Z,97200.41
2022-10-03T23:41:48.129Z,97206.09
2022-10-03T23:44:34.270Z,97196.22
2022-10-03T23:47:07.331Z,97192.84
2022-10-03T23:49:35.108Z,97191.47
2022-10-03T23:52:05.857Z,97185.63
2022-10-03T23:54:33.774Z,97187.53
2022-10-03T23:57:04.350Z,97183.00
2022-10-03T23:59:31.902Z,97174.22
